createdAt,value
2018-05-25T00:01:52.131Z,17.10
2018-05-25T00:06:43.667Z,17.00
2018-05-25T00:11:35.196Z,17.00
2018-05-25T00:16:26.710Z,17.00
2018-05-25T00:21:18.214Z,17.00
2018-05-25T00:26:09.729Z,16.90
2018-05-25T00:31:01.244Z,16.90
2018-05-25T00:35:53.526Z,16.90
2018-05-25T00:40:45.076Z,16.90
2018-05-25T00:45:36.614Z,17.00
2018-05-25T00:50:28.184Z,17.10
2018-05-25T00:55:38.186Z,17.10
2018-05-25T01:00:29.694Z,17.10
2018-05-25T01:05:22.075Z,17.00
2018-05-25T01:10:13.585Z,17.00
2018-05-25T01:15:05.850Z,16.90
2018-05-25T01:19:57.393Z,16.90
2018-05-25T01:24:48.911Z,16.90
2018-05-25T01:29:41.162Z,16.80
2018-05-25T01:34:33.422Z,16.70
2018-05-25T01:39:25.732Z,16.70
2018-05-25T01:44:17.225Z,16.60
2018-05-25T01:49:08.794Z,16.60
2018-05-25T01:54:00.308Z,16.50
2018-05-25T01:58:51.799Z,16.50
2018-05-25T02:03:44.082Z,16.40
2018-05-25T02:08:35.595Z,16.30
2018-05-25T02:13:27.128Z,16.40
2018-05-25T02:18:19.878Z,16.30
2018-05-25T02:23:12.236Z,16.30
2018-05-25T02:28:04.575Z,16.30
2018-05-25T02:32:56.073Z,16.20
2018-05-25T02:37:47.609Z,16.20
2018-05-25T02:42:39.148Z,16.20
2018-05-25T02:47:30.768Z,16.20
2018-05-25T02:52:22.277Z,16.10
2018-05-25T02:57:13.837Z,16.10
2018-05-25T03:02:05.534Z,16.10
2018-05-25T03:06:57.810Z,16.10
2018-05-25T03:11:49.314Z,16.00
2018-05-25T03:16:41.612Z,16.10
2018-05-25T03:21:33.425Z,16.00
2018-05-25T03:26:24.974Z,16.00
2018-05-25T03:31:16.468Z,16.00
2018-05-25T03:36:07.985Z,16.00
2018-05-25T03:41:01.008Z,15.90
2018-05-25T03:45:52.511Z,15.90
2018-05-25T03:50:44.785Z,16.00
2018-05-25T03:55:36.352Z,16.00
2018-05-25T04:00:46.317Z,16.00
2018-05-25T04:05:37.843Z,16.00
2018-05-25T04:10:29.355Z,16.00
2018-05-25T04:15:20.881Z,16.10
2018-05-25T04:20:13.139Z,16.20
2018-05-25T04:25:04.680Z,16.20
2018-05-25T04:29:56.169Z,16.30
2018-05-25T04:34:47.728Z,16.40
2018-05-25T04:39:39.971Z,16.50
2018-05-25T04:44:32.229Z,16.70
2018-05-25T04:49:24.526Z,16.80
2018-05-25T04:54:16.091Z,16.70
2018-05-25T04:59:07.610Z,16.90
2018-05-25T05:03:59.115Z,17.60
2018-05-25T05:08:50.664Z,18.50
2018-05-25T05:13:42.223Z,18.10
2018-05-25T05:18:33.856Z,18.30
2018-05-25T05:23:25.370Z,18.10
2018-05-25T05:28:16.894Z,18.00
2018-05-25T05:33:08.380Z,19.10
2018-05-25T05:38:00.647Z,21.10
2018-05-25T05:42:52.902Z,21.70
2018-05-25T05:47:45.149Z,22.00
2018-05-25T05:52:37.495Z,22.70
2018-05-25T05:57:29.773Z,23.10
2018-05-25T06:02:21.293Z,23.00
2018-05-25T06:07:13.523Z,23.50
2018-05-25T06:12:05.784Z,23.10
2018-05-25T06:16:58.049Z,21.70
2018-05-25T06:21:49.613Z,21.70
2018-05-25T06:26:41.109Z,20.80
2018-05-25T06:31:33.385Z,20.70
2018-05-25T06:36:24.919Z,20.60
2018-05-25T06:41:16.523Z,21.50
2018-05-25T06:46:08.785Z,24.20
2018-05-25T06:51:00.292Z,24.20
2018-05-25T06:55:52.664Z,25.60
2018-05-25T07:00:44.914Z,25.60
2018-05-25T07:05:37.203Z,25.50
2018-05-25T07:10:28.997Z,25.40
2018-05-25T07:15:21.359Z,28.10
2018-05-25T07:20:13.687Z,28.60
2018-05-25T07:25:05.238Z,28.60
2018-05-25T07:29:56.834Z,28.80
2018-05-25T07:34:48.396Z,29.00
2018-05-25T07:39:39.996Z,29.10
2018-05-25T07:44:31.524Z,30.10
2018-05-25T07:49:23.092Z,29.50
2018-05-25T07:54:14.659Z,30.00
2018-05-25T07:59:06.123Z,30.20
2018-05-25T08:03:57.663Z,31.20
2018-05-25T08:08:49.232Z,32.40
2018-05-25T08:13:40.715Z,32.80
2018-05-25T08:18:32.271Z,33.80
2018-05-25T08:23:23.796Z,33.30
2018-05-25T08:28:15.345Z,32.50
2018-05-25T08:33:06.908Z,30.40
2018-05-25T08:37:58.542Z,30.40
2018-05-25T08:42:50.134Z,31.60
2018-05-25T08:47:42.147Z,32.70
2018-05-25T08:52:34.665Z,32.50
2018-05-25T08:57:27.133Z,31.50
2018-05-25T09:02:18.630Z,31.40
2018-05-25T09:07:10.119Z,31.40
2018-05-25T09:12:02.379Z,32.30
2018-05-25T09:16:54.626Z,32.70
2018-05-25T09:21:46.978Z,33.30
2018-05-25T09:26:38.452Z,33.20
2018-05-25T09:31:29.957Z,34.30
2018-05-25T09:36:21.557Z,32.50
2018-05-25T09:41:13.218Z,30.00
2018-05-25T09:46:04.596Z,30.40
2018-05-25T09:50:56.102Z,29.70
2018-05-25T09:55:48.413Z,30.60
2018-05-25T10:00:39.967Z,30.60
2018-05-25T10:05:32.215Z,31.60
2018-05-25T10:10:24.463Z,31.40
2018-05-25T10:15:15.957Z,31.30
2018-05-25T10:20:07.506Z,28.90
2018-05-25T10:24:59.034Z,29.40
2018-05-25T10:29:50.589Z,28.30
2018-05-25T10:34:42.124Z,27.00
2018-05-25T10:39:33.702Z,26.70
2018-05-25T10:44:25.256Z,27.10
2018-05-25T10:49:16.779Z,28.10
2018-05-25T10:54:08.298Z,27.10
2018-05-25T10:59:00.567Z,27.40
2018-05-25T11:03:52.057Z,27.40
2018-05-25T11:08:43.652Z,27.00
2018-05-25T11:13:35.221Z,27.00
2018-05-25T11:18:26.728Z,27.40
2018-05-25T11:23:18.227Z,26.70
2018-05-25T11:28:09.795Z,27.90
2018-05-25T11:33:01.314Z,29.00
2018-05-25T11:37:52.834Z,27.50
2018-05-25T11:42:44.435Z,28.00
2018-05-25T11:47:36.705Z,28.00
2018-05-25T11:52:28.944Z,28.20
2018-05-25T11:57:21.191Z,28.20
2018-05-25T12:02:12.690Z,28.20
2018-05-25T12:07:04.270Z,28.40
2018-05-25T12:11:56.483Z,28.30
2018-05-25T12:16:47.983Z,28.30
2018-05-25T12:21:39.492Z,28.70
2018-05-25T12:26:31.799Z,28.50
2018-05-25T12:31:23.410Z,28.50
2018-05-25T12:36:14.959Z,28.90
2018-05-25T12:41:06.552Z,29.20
2018-05-25T12:45:58.856Z,28.60
2018-05-25T12:50:50.405Z,28.50
2018-05-25T12:55:43.238Z,29.00
2018-05-25T13:00:34.957Z,29.30
2018-05-25T13:05:26.588Z,28.80
2018-05-25T13:10:18.187Z,29.10
2018-05-25T13:15:09.691Z,29.70
2018-05-25T13:20:01.246Z,29.40
2018-05-25T13:24:52.829Z,29.70
2018-05-25T13:29:44.477Z,29.90
2018-05-25T13:34:36.037Z,29.40
2018-05-25T13:39:27.718Z,28.80
2018-05-25T13:44:20.327Z,29.20
2018-05-25T13:49:11.902Z,29.10
2018-05-25T13:54:03.381Z,28.60
2018-05-25T13:58:54.987Z,29.30
2018-05-25T14:03:47.222Z,29.40
2018-05-25T14:08:40.279Z,29.40
2018-05-25T14:13:32.536Z,28.80
2018-05-25T14:18:24.101Z,27.80
2018-05-25T14:23:15.716Z,28.10
2018-05-25T14:28:08.451Z,29.00
2018-05-25T14:32:59.978Z,28.90
2018-05-25T14:37:51.520Z,29.00
2018-05-25T14:42:43.040Z,29.30
2018-05-25T14:47:34.578Z,29.70
2018-05-25T14:52:26.832Z,29.40
2018-05-25T14:57:18.354Z,29.40
2018-05-25T15:02:09.897Z,29.40
2018-05-25T15:07:02.193Z,29.30
2018-05-25T15:11:53.742Z,29.20
2018-05-25T15:16:45.988Z,29.20
2018-05-25T15:21:38.229Z,29.10
2018-05-25T15:26:30.477Z,29.20
2018-05-25T15:31:22.723Z,28.90
2018-05-25T15:36:14.198Z,28.80
2018-05-25T15:41:05.874Z,28.60
2018-05-25T15:45:57.384Z,28.40
2018-05-25T15:50:48.905Z,28.80
2018-05-25T15:55:40.384Z,28.80
2018-05-25T16:00:31.954Z,28.70
2018-05-25T16:05:24.214Z,28.10
2018-05-25T16:10:15.714Z,28.00
2018-05-25T16:15:07.284Z,27.80
2018-05-25T16:19:58.800Z,28.30
2018-05-25T16:24:51.041Z,28.00
2018-05-25T16:29:43.304Z,27.60
2018-05-25T16:34:34.833Z,27.50
2018-05-25T16:39:27.122Z,27.80
2018-05-25T16:44:18.632Z,27.80
2018-05-25T16:49:10.131Z,27.50
2018-05-25T16:54:01.643Z,27.20
2018-05-25T16:58:53.215Z,26.50
2018-05-25T17:03:44.823Z,26.40
2018-05-25T17:08:36.334Z,26.20
2018-05-25T17:13:27.852Z,26.00
2018-05-25T17:18:19.406Z,26.00
2018-05-25T17:23:10.919Z,26.10
2018-05-25T17:28:02.435Z,26.10
2018-05-25T17:32:53.941Z,26.00
2018-05-25T17:37:45.532Z,26.00
2018-05-25T17:42:37.057Z,26.10
2018-05-25T17:47:28.561Z,26.00
2018-05-25T17:52:20.808Z,26.00
2018-05-25T17:57:13.067Z,26.00
2018-05-25T18:02:06.331Z,25.90
2018-05-25T18:06:57.839Z,25.90
2018-05-25T18:11:49.358Z,25.90
2018-05-25T18:16:41.218Z,25.90
2018-05-25T18:21:32.717Z,25.90
2018-05-25T18:26:24.219Z,25.80
2018-05-25T18:31:16.451Z,25.50
2018-05-25T18:36:07.939Z,25.50
2018-05-25T18:40:59.468Z,25.30
2018-05-25T18:45:50.965Z,25.20
2018-05-25T18:50:43.242Z,25.00
2018-05-25T18:55:34.757Z,24.90
2018-05-25T19:00:26.997Z,24.70
2018-05-25T19:05:19.249Z,24.50
2018-05-25T19:10:10.772Z,24.50
2018-05-25T19:15:02.347Z,24.40
2018-05-25T19:19:53.915Z,24.20
2018-05-25T19:24:45.396Z,24.10
2018-05-25T19:29:37.618Z,23.80
2018-05-25T19:34:29.157Z,23.70
2018-05-25T19:39:20.680Z,23.70
2018-05-25T19:44:13.781Z,23.50
2018-05-25T19:49:06.027Z,23.40
2018-05-25T19:53:58.287Z,23.40
2018-05-25T19:58:50.561Z,23.30
2018-05-25T20:03:42.164Z,23.20
2018-05-25T20:08:34.604Z,23.00
2018-05-25T20:13:26.158Z,23.00
2018-05-25T20:18:17.687Z,23.00
2018-05-25T20:23:09.974Z,22.80
2018-05-25T20:28:01.475Z,22.70
2018-05-25T20:32:53.727Z,22.60
2018-05-25T20:37:46.040Z,22.50
2018-05-25T20:42:37.546Z,22.40
2018-05-25T20:47:29.052Z,22.40
2018-05-25T20:52:21.696Z,22.20
2018-05-25T20:57:13.969Z,22.10
2018-05-25T21:02:06.241Z,22.00
2018-05-25T21:06:57.734Z,21.90
2018-05-25T21:11:49.253Z,21.80
2018-05-25T21:16:40.743Z,21.70
2018-05-25T21:21:32.248Z,21.60
2018-05-25T21:26:24.479Z,21.30
2018-05-25T21:31:16.016Z,21.30
2018-05-25T21:36:07.515Z,21.20
2018-05-25T21:40:59.002Z,21.20
2018-05-25T21:45:51.303Z,21.00
2018-05-25T21:50:43.605Z,21.00
2018-05-25T21:55:35.898Z,20.90
2018-05-25T22:00:29.493Z,20.80
2018-05-25T22:05:20.999Z,20.80
2018-05-25T22:10:12.510Z,20.70
2018-05-25T22:15:04.751Z,20.50
2018-05-25T22:19:57.011Z,20.40
2018-05-25T22:24:49.253Z,20.30
2018-05-25T22:29:40.802Z,20.20
2018-05-25T22:34:33.049Z,20.20
2018-05-25T22:39:25.383Z,20.20
2018-05-25T22:44:35.401Z,20.10
2018-05-25T22:49:45.461Z,20.10
2018-05-25T22:54:41.911Z,20.00
2018-05-25T22:59:33.393Z,19.80
2018-05-25T23:04:24.886Z,19.80
2018-05-25T23:09:16.439Z,19.80
2018-05-25T23:14:07.915Z,19.90
2018-05-25T23:19:00.208Z,20.00
2018-05-25T23:23:51.736Z,19.90
2018-05-25T23:28:43.250Z,19.90
2018-05-25T23:33:34.767Z,19.90
2018-05-25T23:38:28.053Z,19.70
2018-05-25T23:43:20.293Z,19.60
2018-05-25T23:48:12.540Z,19.60
2018-05-25T23:53:04.041Z,19.50
2018-05-25T23:57:55.552Z,19.50
